Time;durP1;ratioP1;P1;durP2;ratioP2;P2;SDS_P1;SDS_P2;PMS_P1;PMS_P2;Temp;Humidity;BMP_temperature;BMP_pressure;BME280_temperature;BME280_humidity;BME280_pressure;Samples;Min_cycle;Max_cycle;Signal;HPM_P1;HPM_P2
2021/05/04 00:01:07;;;;;;;4.00;2.90;;;7.50;99.90;;;;;;5055413;28;20637;-94
2021/05/04 00:03:33;;;;;;;4.53;3.13;;;7.50;99.90;;;;;;5055139;28;20221;-95
2021/05/04 00:05:58;;;;;;;4.40;3.00;;;7.60;99.90;;;;;;5055097;28;20197;-93
2021/05/04 00:08:24;;;;;;;4.93;3.07;;;7.60;99.90;;;;;;5055023;28;20178;-92
2021/05/04 00:10:51;;;;;;;9.30;3.00;;;7.70;99.90;;;;;;5054687;28;20689;-94
2021/05/04 00:13:17;;;;;;;6.40;2.77;;;7.70;99.90;;;;;;5054653;28;20657;-93
2021/05/04 00:15:43;;;;;;;3.70;2.57;;;7.80;99.90;;;;;;5055180;28;20185;-90
2021/05/04 00:18:09;;;;;;;4.37;2.77;;;7.90;99.90;;;;;;5054944;28;20210;-91
2021/05/04 00:20:35;;;;;;;3.13;2.80;;;8.00;99.90;;;;;;5055047;28;20177;-92
2021/05/04 00:23:00;;;;;;;6.63;2.97;;;8.00;99.90;;;;;;5054152;28;20653;-95
2021/05/04 00:25:26;;;;;;;3.67;2.63;;;8.00;99.90;;;;;;5054790;28;20705;-92
2021/05/04 00:27:52;;;;;;;3.27;2.80;;;8.00;99.90;;;;;;5054747;28;20626;-92
2021/05/04 00:30:18;;;;;;;6.00;2.90;;;8.00;99.90;;;;;;5054891;28;20167;-92
2021/05/04 00:32:44;;;;;;;6.30;2.80;;;8.00;99.90;;;;;;5054535;28;20738;-92
2021/05/04 00:35:10;;;;;;;5.00;2.83;;;8.00;99.90;;;;;;5054637;28;20170;-94
2021/05/04 00:37:36;;;;;;;3.77;2.60;;;8.00;99.90;;;;;;5054425;28;20174;-93
2021/05/04 00:40:03;;;;;;;3.73;2.33;;;8.00;99.90;;;;;;5054381;28;20598;-93
2021/05/04 00:42:29;;;;;;;3.90;2.77;;;8.10;99.90;;;;;;5054481;28;20202;-92
2021/05/04 00:44:55;;;;;;;3.73;2.73;;;8.10;99.90;;;;;;5054688;28;20339;-94
2021/05/04 00:47:21;;;;;;;4.63;2.63;;;8.10;99.90;;;;;;5054609;28;20166;-94
2021/05/04 00:49:46;;;;;;;4.30;2.83;;;8.20;99.90;;;;;;5053955;28;20170;-91
2021/05/04 00:52:13;;;;;;;4.87;2.43;;;8.20;99.90;;;;;;5053732;28;20649;-93
2021/05/04 00:54:40;;;;;;;3.57;2.80;;;8.20;99.90;;;;;;5054149;28;20170;-94
2021/05/04 00:57:12;;;;;;;3.33;2.53;;;8.30;99.90;;;;;;5054412;28;20611;-94
2021/05/04 00:59:38;;;;;;;3.87;2.90;;;8.40;99.90;;;;;;5054082;28;20174;-92
2021/05/04 01:02:04;;;;;;;8.73;2.93;;;8.50;99.90;;;;;;5053998;28;20691;-94
2021/05/04 01:04:31;;;;;;;3.00;2.67;;;8.50;99.90;;;;;;5053652;28;20221;-92
2021/05/04 01:06:58;;;;;;;4.70;2.63;;;8.60;99.90;;;;;;5053856;28;20170;-90
2021/05/04 01:09:24;;;;;;;5.07;3.10;;;8.60;99.90;;;;;;5053409;28;20284;-92
2021/05/04 01:11:50;;;;;;;4.40;3.20;;;8.60;99.90;;;;;;5053643;28;20700;-92
2021/05/04 01:14:16;;;;;;;6.20;2.67;;;8.60;99.90;;;;;;5053580;28;20181;-93
2021/05/04 01:16:55;;;;;;;4.70;2.83;;;8.70;99.90;;;;;;5053855;28;20170;-92
2021/05/04 01:19:22;;;;;;;3.80;3.00;;;8.70;99.90;;;;;;5053570;28;20265;-91
2021/05/04 01:21:48;;;;;;;5.57;3.10;;;8.70;99.70;;;;;;5053543;28;20232;-92
2021/05/04 01:24:15;;;;;;;5.03;3.03;;;8.80;99.80;;;;;;5053741;28;20228;-93
2021/05/04 01:26:45;;;;;;;5.77;3.03;;;8.80;99.90;;;;;;5053487;28;20177;-90
2021/05/04 01:29:12;;;;;;;4.03;3.20;;;8.80;99.80;;;;;;5053169;28;20174;-91
2021/05/04 01:31:39;;;;;;;5.40;3.17;;;8.90;99.80;;;;;;5053337;28;20232;-95
2021/05/04 01:34:06;;;;;;;5.53;2.97;;;8.90;99.90;;;;;;5053383;28;20201;-92
2021/05/04 01:36:33;;;;;;;4.50;3.40;;;8.80;99.90;;;;;;5053298;28;20205;-92
2021/05/04 01:39:00;;;;;;;10.00;3.00;;;8.90;99.90;;;;;;5053277;28;20188;-92
2021/05/04 01:41:26;;;;;;;5.07;3.30;;;8.90;99.90;;;;;;5053674;28;20227;-93
2021/05/04 01:43:52;;;;;;;5.83;2.90;;;8.90;99.90;;;;;;5053419;28;20225;-90
2021/05/04 01:46:18;;;;;;;4.47;3.37;;;9.00;99.70;;;;;;5053274;28;20235;-94
2021/05/04 01:48:44;;;;;;;3.73;3.03;;;9.10;99.60;;;;;;5054254;28;20197;-93
2021/05/04 01:51:09;;;;;;;5.93;3.10;;;9.00;99.60;;;;;;5053166;28;20166;-93
2021/05/04 01:53:35;;;;;;;3.60;2.90;;;9.00;99.50;;;;;;5053053;28;20209;-94
2021/05/04 01:56:01;;;;;;;6.43;2.90;;;9.10;99.70;;;;;;5053521;28;20609;-92
2021/05/04 01:58:27;;;;;;;4.53;3.30;;;9.10;99.60;;;;;;5053326;28;20181;-95
2021/05/04 02:00:53;;;;;;;4.60;3.30;;;9.10;99.80;;;;;;5053343;28;20176;-93
2021/05/04 02:03:20;;;;;;;4.87;3.10;;;9.10;99.80;;;;;;5053048;28;20591;-94
2021/05/04 02:05:46;;;;;;;5.33;3.47;;;9.10;99.70;;;;;;5052905;28;20665;-91
2021/05/04 02:08:12;;;;;;;4.77;3.13;;;9.10;99.40;;;;;;5053141;28;20196;-92
2021/05/04 02:10:38;;;;;;;4.70;3.37;;;9.10;99.50;;;;;;5052767;28;20742;-93
2021/05/04 02:13:04;;;;;;;6.53;3.10;;;9.10;99.40;;;;;;5053015;28;20197;-92
2021/05/04 02:15:29;;;;;;;4.80;3.27;;;9.10;99.60;;;;;;5053038;28;20185;-93
2021/05/04 02:17:56;;;;;;;4.57;2.97;;;9.00;99.60;;;;;;5053181;28;20182;-92
2021/05/04 02:20:22;;;;;;;5.13;3.23;;;9.10;99.40;;;;;;5052790;28;20529;-93
2021/05/04 02:22:48;;;;;;;4.03;3.17;;;9.00;99.40;;;;;;5052895;28;20228;-92
2021/05/04 02:25:14;;;;;;;4.37;3.10;;;9.00;99.50;;;;;;5053048;28;20198;-90
2021/05/04 02:27:40;;;;;;;5.07;3.20;;;9.00;99.30;;;;;;5053094;28;20167;-93
2021/05/04 02:30:06;;;;;;;4.30;3.03;;;9.00;99.10;;;;;;5053123;28;20170;-92
2021/05/04 02:32:35;;;;;;;4.17;2.90;;;9.00;99.30;;;;;;5052978;28;20309;-93
2021/05/04 02:35:03;;;;;;;4.73;2.90;;;9.10;99.20;;;;;;5053004;28;20614;-91
2021/05/04 02:37:28;;;;;;;5.90;3.13;;;9.10;98.90;;;;;;5053299;28;20166;-92
2021/05/04 02:39:54;;;;;;;4.00;3.00;;;9.20;99.10;;;;;;5052986;28;20244;-92
2021/05/04 02:42:21;;;;;;;6.77;2.87;;;9.20;98.70;;;;;;5052805;28;20193;-92
2021/05/04 02:44:55;;;;;;;5.93;3.63;;;9.20;98.70;;;;;;5053090;28;20194;-92
2021/05/04 02:47:21;;;;;;;3.77;3.03;;;9.20;98.80;;;;;;5056819;28;20173;-92
2021/05/04 02:49:47;;;;;;;6.77;3.40;;;9.20;99.00;;;;;;5056476;28;20166;-92
2021/05/04 02:52:13;;;;;;;5.27;3.20;;;9.20;98.70;;;;;;5056340;28;20612;-91
2021/05/04 02:54:39;;;;;;;4.40;3.03;;;9.30;98.60;;;;;;5056328;28;20235;-93
2021/05/04 02:57:05;;;;;;;4.70;2.97;;;9.30;98.60;;;;;;5056145;28;20252;-92
2021/05/04 02:59:30;;;;;;;5.13;3.33;;;9.30;98.60;;;;;;5056294;28;20189;-91
2021/05/04 03:01:56;;;;;;;7.53;3.27;;;9.30;98.40;;;;;;5055934;28;20233;-94
2021/05/04 03:04:22;;;;;;;4.30;3.50;;;9.40;98.30;;;;;;5056052;28;20202;-93
2021/05/04 03:06:48;;;;;;;4.60;3.10;;;9.40;98.20;;;;;;5056364;28;20579;-93
2021/05/04 03:09:14;;;;;;;6.87;3.20;;;9.40;98.40;;;;;;5055933;28;20268;-91
2021/05/04 03:11:39;;;;;;;5.27;3.27;;;9.50;97.80;;;;;;5055641;28;20190;-93
2021/05/04 03:14:05;;;;;;;4.87;3.47;;;9.50;97.80;;;;;;5056432;28;20726;-93
2021/05/04 03:16:31;;;;;;;4.37;3.13;;;9.50;98.00;;;;;;5056328;28;20178;-92
2021/05/04 03:19:00;;;;;;;4.47;3.43;;;9.50;98.10;;;;;;5056158;28;20216;-92
2021/05/04 03:21:27;;;;;;;4.00;3.00;;;9.40;97.80;;;;;;5055864;28;20630;-92
2021/05/04 03:23:53;;;;;;;3.97;3.10;;;9.50;97.80;;;;;;5055683;28;20198;-92
2021/05/04 03:26:19;;;;;;;5.00;3.77;;;9.50;97.80;;;;;;5055564;28;20626;-91
2021/05/04 03:28:44;;;;;;;5.57;2.97;;;9.50;97.80;;;;;;5055756;28;20173;-93
2021/05/04 03:31:10;;;;;;;5.13;3.30;;;9.50;97.70;;;;;;5055513;28;20212;-94
2021/05/04 03:33:36;;;;;;;5.70;3.20;;;9.50;97.50;;;;;;5055767;28;20216;-91
2021/05/04 03:36:07;;;;;;;7.03;3.73;;;9.50;97.60;;;;;;5055577;28;20170;-92
2021/05/04 03:38:34;;;;;;;4.87;3.40;;;9.60;97.40;;;;;;5055537;28;20166;-92
2021/05/04 03:41:00;;;;;;;4.60;3.30;;;9.60;97.40;;;;;;5055646;28;20173;-94
2021/05/04 03:43:27;;;;;;;7.40;3.20;;;9.60;97.30;;;;;;5055758;28;20227;-92
2021/05/04 03:45:53;;;;;;;4.90;3.10;;;9.60;97.80;;;;;;5055587;28;20182;-93
2021/05/04 03:48:19;;;;;;;6.27;3.30;;;9.60;97.40;;;;;;5056107;28;20587;-92
2021/05/04 03:50:45;;;;;;;6.23;3.53;;;9.60;97.60;;;;;;5055422;28;20166;-92
2021/05/04 03:53:11;;;;;;;5.67;3.37;;;9.60;97.40;;;;;;5055357;28;20226;-92
2021/05/04 03:55:37;;;;;;;8.07;3.73;;;9.60;97.30;;;;;;5055323;28;20630;-92
2021/05/04 03:58:03;;;;;;;5.50;3.33;;;9.60;97.60;;;;;;5054081;28;20177;-94
2021/05/04 04:00:28;;;;;;;4.17;3.33;;;9.60;97.70;;;;;;5055323;28;20260;-93
2021/05/04 04:02:54;;;;;;;5.33;3.17;;;9.60;97.80;;;;;;5055008;28;20194;-92
2021/05/04 04:05:20;;;;;;;5.60;4.00;;;9.60;97.20;;;;;;5055209;28;20280;-92
2021/05/04 04:07:46;;;;;;;5.00;3.20;;;9.60;97.20;;;;;;5055164;28;20544;-94
2021/05/04 04:10:12;;;;;;;5.30;3.27;;;9.60;97.00;;;;;;5054832;28;20222;-93
2021/05/04 04:12:40;;;;;;;5.30;3.20;;;9.70;97.40;;;;;;5054849;28;20194;-91
2021/05/04 04:15:07;;;;;;;4.47;3.30;;;9.60;97.40;;;;;;5054569;28;20234;-94
2021/05/04 04:17:33;;;;;;;5.83;3.40;;;9.60;97.20;;;;;;5054757;28;20170;-94
2021/05/04 04:19:59;;;;;;;5.00;3.40;;;9.60;97.00;;;;;;5055021;28;20529;-93
2021/05/04 04:22:25;;;;;;;5.80;3.47;;;9.60;97.40;;;;;;5054594;28;20198;-94
2021/05/04 04:24:54;;;;;;;4.10;3.30;;;9.60;97.40;;;;;;5054673;28;20284;-92
2021/05/04 04:27:21;;;;;;;6.87;4.00;;;9.60;97.80;;;;;;5054754;28;20169;-94
2021/05/04 04:29:47;;;;;;;6.60;3.60;;;9.60;97.60;;;;;;5054747;28;20637;-94
2021/05/04 04:32:13;;;;;;;4.93;3.60;;;9.60;97.40;;;;;;5054764;28;20252;-93
2021/05/04 04:34:40;;;;;;;4.63;3.57;;;9.70;97.70;;;;;;5054817;28;20174;-92
2021/05/04 04:37:06;;;;;;;5.87;3.77;;;9.60;97.90;;;;;;5054582;28;20585;-92
2021/05/04 04:39:32;;;;;;;6.27;3.80;;;9.60;97.90;;;;;;5054301;28;20638;-92
2021/05/04 04:41:58;;;;;;;5.57;4.10;;;9.70;97.10;;;;;;5054400;28;20669;-94
2021/05/04 04:44:24;;;;;;;6.57;3.80;;;9.70;98.10;;;;;;5054552;28;20224;-92
2021/05/04 04:46:50;;;;;;;7.43;3.93;;;9.60;97.90;;;;;;5054561;28;20178;-92
2021/05/04 04:49:18;;;;;;;93.67;8.03;;;9.60;98.10;;;;;;5054368;28;20223;-94
2021/05/04 04:51:46;;;;;;;10.83;5.10;;;9.60;98.10;;;;;;5054355;28;20523;-94
2021/05/04 04:54:12;;;;;;;5.53;3.70;;;9.70;98.20;;;;;;5054064;28;20201;-94
2021/05/04 04:56:38;;;;;;;4.70;3.60;;;9.60;98.50;;;;;;5054268;28;20201;-93
2021/05/04 04:59:05;;;;;;;6.40;3.60;;;9.60;98.40;;;;;;5054072;28;20174;-91
2021/05/04 05:01:31;;;;;;;6.90;3.60;;;9.60;98.30;;;;;;5054132;28;20223;-93
2021/05/04 05:03:58;;;;;;;6.27;4.10;;;9.70;98.30;;;;;;5053869;28;20201;-95
2021/05/04 05:06:24;;;;;;;3.97;3.03;;;9.70;98.50;;;;;;5054576;28;20170;-93
2021/05/04 05:08:51;;;;;;;6.10;3.90;;;9.70;98.70;;;;;;5053574;28;20170;-92
2021/05/04 05:11:18;;;;;;;4.27;2.80;;;9.60;99.10;;;;;;5053707;28;20635;-91
2021/05/04 05:13:45;;;;;;;4.43;2.87;;;9.80;97.70;;;;;;5054024;28;20260;-93
2021/05/04 05:16:12;;;;;;;5.83;3.00;;;9.90;98.00;;;;;;5053784;28;20162;-92
2021/05/04 05:18:39;;;;;;;5.37;2.67;;;9.90;98.40;;;;;;5053517;28;20162;-94
2021/05/04 05:21:05;;;;;;;2.83;2.17;;;9.90;98.40;;;;;;5053523;28;20169;-93
2021/05/04 05:23:32;;;;;;;4.53;2.07;;;10.00;97.40;;;;;;5053698;28;20194;-93
2021/05/04 05:26:00;;;;;;;5.57;2.53;;;10.10;97.50;;;;;;5052822;28;20224;-94
2021/05/04 05:28:26;;;;;;;4.23;2.00;;;10.30;96.80;;;;;;5070395;28;20172;-92
2021/05/04 05:30:52;;;;;;;5.70;2.00;;;10.30;97.00;;;;;;5070010;28;20189;-93
2021/05/04 05:33:28;;;;;;;5.67;2.17;;;10.50;96.50;;;;;;5069094;28;20231;-91
2021/05/04 05:35:54;;;;;;;7.67;2.10;;;10.50;96.70;;;;;;5073431;28;20192;-93
2021/05/04 05:38:21;;;;;;;3.57;2.00;;;10.50;96.20;;;;;;5055984;28;20177;-93
2021/05/04 05:40:47;;;;;;;4.70;1.97;;;10.60;96.00;;;;;;5065233;28;20197;-91
2021/05/04 05:43:12;;;;;;;2.80;2.00;;;10.60;96.20;;;;;;5060284;28;20202;-95
2021/05/04 05:45:38;;;;;;;3.33;2.07;;;10.60;96.30;;;;;;5059217;28;20234;-93
2021/05/04 05:48:05;;;;;;;5.30;2.10;;;10.60;96.90;;;;;;5059892;28;20228;-94
2021/05/04 05:50:31;;;;;;;6.20;2.73;;;10.60;96.60;;;;;;5056448;28;20173;-93
2021/05/04 05:52:57;;;;;;;6.00;2.23;;;10.70;96.20;;;;;;5071725;28;20197;-94
2021/05/04 05:55:23;;;;;;;6.60;2.13;;;10.70;96.90;;;;;;5054863;28;20328;-94
2021/05/04 05:57:48;;;;;;;3.90;2.10;;;10.70;96.40;;;;;;5062472;28;20176;-93
2021/05/04 06:00:17;;;;;;;3.60;2.20;;;10.80;96.80;;;;;;5055525;28;20183;-94
2021/05/04 06:02:43;;;;;;;2.50;1.90;;;10.80;96.70;;;;;;5068124;28;20208;-94
2021/05/04 06:05:09;;;;;;;2.83;1.90;;;10.90;96.50;;;;;;5068856;28;20712;-93
2021/05/04 06:07:35;;;;;;;3.60;1.90;;;10.90;96.60;;;;;;5063123;28;20208;-94
2021/05/04 06:10:02;;;;;;;6.53;2.30;;;10.90;96.60;;;;;;5050941;28;20226;-93
2021/05/04 06:12:27;;;;;;;4.40;2.20;;;11.00;96.40;;;;;;5058110;28;20197;-92
2021/05/04 06:15:18;;;;;;;3.73;2.30;;;11.00;96.90;;;;;;5053359;28;20178;-93
2021/05/04 06:17:44;;;;;;;4.07;2.00;;;11.00;96.70;;;;;;5053193;28;20185;-92
2021/05/04 06:20:10;;;;;;;3.27;2.20;;;11.00;96.20;;;;;;5054344;28;20172;-93
2021/05/04 06:22:38;;;;;;;4.23;2.23;;;11.00;97.20;;;;;;5057926;28;20227;-91
2021/05/04 06:25:04;;;;;;;4.37;2.17;;;11.00;97.80;;;;;;5057726;28;20206;-93
2021/05/04 06:27:30;;;;;;;2.37;1.90;;;10.90;98.60;;;;;;5057566;28;20177;-93
2021/05/04 06:29:57;;;;;;;2.07;1.87;;;10.80;99.30;;;;;;5057440;28;20594;-95
2021/05/04 06:32:37;;;;;;;3.90;1.97;;;10.70;99.50;;;;;;5057051;28;21360;-96
2021/05/04 06:35:07;;;;;;;2.00;1.80;;;10.70;99.40;;;;;;5056504;28;20178;-93
2021/05/04 06:37:53;;;;;;;3.30;2.03;;;10.70;99.90;;;;;;5058096;28;20182;-95
2021/05/04 06:40:21;;;;;;;5.77;1.70;;;10.70;99.90;;;;;;5057095;28;20649;-92
2021/05/04 06:42:46;;;;;;;5.67;2.37;;;10.70;99.90;;;;;;5068879;28;20738;-92
2021/05/04 06:45:12;;;;;;;4.10;2.00;;;10.60;99.90;;;;;;5075823;28;20204;-92
2021/05/04 06:47:40;;;;;;;3.33;2.00;;;10.50;99.90;;;;;;5067368;28;20181;-92
2021/05/04 06:50:27;;;;;;;4.93;2.13;;;10.40;99.90;;;;;;5056982;28;20162;-95
2021/05/04 06:52:53;;;;;;;2.57;2.00;;;10.40;99.90;;;;;;5056064;28;20202;-93
2021/05/04 06:55:19;;;;;;;2.63;1.97;;;10.30;99.90;;;;;;5055654;28;20185;-95
2021/05/04 06:57:45;;;;;;;4.50;2.27;;;10.30;99.90;;;;;;5067054;28;20173;-92
2021/05/04 07:00:12;;;;;;;2.67;2.10;;;10.40;99.90;;;;;;5076769;28;20177;-94
2021/05/04 07:02:38;;;;;;;3.63;2.00;;;10.60;99.90;;;;;;5075920;28;20201;-91
2021/05/04 07:05:08;;;;;;;4.57;2.03;;;10.70;99.90;;;;;;5076130;28;20200;-94
2021/05/04 07:07:46;;;;;;;2.47;1.70;;;10.90;99.90;;;;;;5068629;28;20651;-93
2021/05/04 07:10:17;;;;;;;3.13;1.80;;;10.90;99.90;;;;;;5068151;28;20271;-93
2021/05/04 07:12:43;;;;;;;2.10;1.70;;;11.00;99.90;;;;;;5057165;28;20198;-93
2021/05/04 07:15:10;;;;;;;12.77;2.00;;;11.00;99.90;;;;;;5061170;28;20177;-94
2021/05/04 07:17:36;;;;;;;2.63;1.70;;;10.90;99.90;;;;;;5069524;28;20220;-95
2021/05/04 07:20:02;;;;;;;1.63;1.47;;;11.00;99.90;;;;;;5041861;28;20685;-94
2021/05/04 07:22:29;;;;;;;5.17;1.70;;;11.10;99.90;;;;;;5052754;28;20281;-92
2021/05/04 07:24:56;;;;;;;2.07;1.60;;;11.10;99.90;;;;;;5051596;28;20216;-93
2021/05/04 07:27:23;;;;;;;2.10;1.40;;;11.20;99.90;;;;;;5051529;28;20263;-93
2021/05/04 07:29:49;;;;;;;2.83;1.50;;;11.30;99.90;;;;;;5052283;28;20185;-92
2021/05/04 07:32:17;;;;;;;3.50;1.50;;;11.30;99.90;;;;;;5051241;28;20212;-94
2021/05/04 07:34:45;;;;;;;3.60;1.33;;;11.30;99.90;;;;;;5052051;28;20189;-94
2021/05/04 07:37:10;;;;;;;2.90;1.33;;;11.30;99.90;;;;;;5051403;28;20186;-95
2021/05/04 07:39:37;;;;;;;1.23;1.13;;;11.40;99.90;;;;;;5051844;28;20739;-94
2021/05/04 07:42:03;;;;;;;5.50;1.63;;;11.50;99.90;;;;;;5051419;28;20210;-92
2021/05/04 07:44:29;;;;;;;2.37;1.30;;;11.50;99.90;;;;;;5051120;28;21512;-93
2021/05/04 07:46:55;;;;;;;1.87;1.30;;;11.50;99.90;;;;;;5051163;28;20181;-92
2021/05/04 07:50:03;;;;;;;1.50;1.10;;;11.50;99.90;;;;;;5050721;28;20178;-92
2021/05/04 07:52:10;;;;;;;2.13;1.30;;;11.30;99.90;;;;;;5046354;28;20583;-92
2021/05/04 07:54:36;;;;;;;4.10;1.47;;;11.20;99.90;;;;;;5051298;28;20196;-93
2021/05/04 07:57:02;;;;;;;1.47;1.37;;;11.10;99.90;;;;;;5046726;28;20228;-95
2021/05/04 07:59:34;;;;;;;1.73;1.50;;;11.10;99.90;;;;;;5057883;28;20181;-94
2021/05/04 08:02:02;;;;;;;2.63;1.37;;;11.00;99.90;;;;;;5053814;28;20210;-93
2021/05/04 08:04:29;;;;;;;4.03;1.33;;;11.00;99.90;;;;;;5053086;28;20211;-93
2021/05/04 08:06:56;;;;;;;4.17;1.77;;;11.00;99.90;;;;;;5053563;28;20269;-93
2021/05/04 08:09:25;;;;;;;2.03;1.20;;;11.00;99.90;;;;;;5052478;28;20236;-92
2021/05/04 08:11:50;;;;;;;2.10;1.20;;;11.10;99.90;;;;;;5052071;28;20768;-92
2021/05/04 08:14:17;;;;;;;1.77;1.33;;;11.20;99.90;;;;;;5053366;28;20245;-93
2021/05/04 08:16:43;;;;;;;2.03;1.43;;;11.30;99.90;;;;;;5044799;28;20315;-93
2021/05/04 08:19:09;;;;;;;3.20;1.40;;;11.40;99.90;;;;;;5051233;28;20281;-92
2021/05/04 08:21:36;;;;;;;3.10;1.30;;;11.40;99.90;;;;;;5054200;28;20206;-90
2021/05/04 08:24:06;;;;;;;1.20;1.10;;;11.60;99.90;;;;;;5050386;28;20232;-93
2021/05/04 08:26:32;;;;;;;2.97;1.20;;;11.70;99.90;;;;;;5050408;28;20217;-94
2021/05/04 08:28:58;;;;;;;4.30;1.50;;;11.80;99.90;;;;;;5043130;28;20299;-91
2021/05/04 08:31:24;;;;;;;2.43;1.67;;;11.80;99.90;;;;;;5044733;28;20186;-93
2021/05/04 08:33:51;;;;;;;1.90;1.20;;;11.90;99.90;;;;;;5049677;28;20178;-92
2021/05/04 08:36:17;;;;;;;3.10;1.70;;;11.70;99.90;;;;;;5048865;28;20646;-92
2021/05/04 08:38:42;;;;;;;2.00;1.40;;;11.60;99.90;;;;;;5049279;28;20185;-93
2021/05/04 08:41:13;;;;;;;3.23;1.60;;;11.70;99.90;;;;;;5050323;28;20190;-93
2021/05/04 08:43:39;;;;;;;4.47;1.40;;;11.70;99.90;;;;;;5049009;28;20198;-94
2021/05/04 08:46:05;;;;;;;1.33;1.23;;;11.80;99.90;;;;;;5049409;28;20669;-93
2021/05/04 08:48:31;;;;;;;6.73;1.27;;;11.90;99.90;;;;;;5045294;28;20197;-94
2021/05/04 08:50:59;;;;;;;1.70;1.30;;;12.00;99.90;;;;;;5048825;28;20243;-92
2021/05/04 08:53:26;;;;;;;2.17;1.40;;;12.20;99.90;;;;;;5050321;28;20257;-92
2021/05/04 08:55:52;;;;;;;4.20;1.47;;;12.10;99.90;;;;;;5048812;28;20236;-93
2021/05/04 08:58:20;;;;;;;1.73;1.47;;;12.00;99.90;;;;;;5049631;28;20224;-93
2021/05/04 09:00:47;;;;;;;3.27;1.40;;;12.10;99.90;;;;;;5050860;28;20613;-93
2021/05/04 09:03:20;;;;;;;4.80;1.40;;;12.10;99.90;;;;;;5051456;28;20206;-94
2021/05/04 09:06:00;;;;;;;2.43;1.40;;;12.10;99.90;;;;;;5050047;28;20205;-93
2021/05/04 09:11:31;;;;;;;3.63;1.57;;;12.30;99.90;;;;;;5050817;28;20236;-91
2021/05/04 09:15:04;;;;;;;1.30;1.20;;;12.40;99.90;;;;;;5046575;28;20189;-94
2021/05/04 09:17:15;;;;;;;2.70;1.30;;;12.50;99.90;;;;;;5037575;28;20194;-92
2021/05/04 09:20:05;;;;;;;3.33;1.20;;;12.70;99.90;;;;;;5039163;28;20182;-92
2021/05/04 09:22:43;;;;;;;2.17;1.17;;;12.70;99.90;;;;;;5058897;28;20212;-94
2021/05/04 09:25:37;;;;;;;3.17;1.30;;;12.60;99.90;;;;;;5046550;28;20677;-91
2021/05/04 09:28:09;;;;;;;3.97;1.10;;;12.50;99.90;;;;;;5066223;28;20324;-94
2021/05/04 09:30:35;;;;;;;2.57;1.27;;;12.30;99.90;;;;;;5051455;28;20446;-92
2021/05/04 09:33:15;;;;;;;6.60;1.40;;;12.10;99.90;;;;;;5047995;28;20212;-93
2021/05/04 09:35:41;;;;;;;3.30;1.30;;;11.90;99.90;;;;;;5048605;28;20242;-94
2021/05/04 09:38:12;;;;;;;4.47;1.20;;;11.80;99.90;;;;;;5049098;28;20249;-93
2021/05/04 09:40:40;;;;;;;5.33;1.20;;;11.70;99.90;;;;;;5048489;28;20182;-93
2021/05/04 09:43:14;;;;;;;5.17;1.30;;;11.70;99.90;;;;;;5047278;28;20205;-92
2021/05/04 09:45:48;;;;;;;2.10;0.93;;;11.70;99.90;;;;;;5040969;28;20328;-92
2021/05/04 09:48:20;;;;;;;1.67;0.97;;;11.70;99.90;;;;;;5047206;28;20209;-92
2021/05/04 09:50:58;;;;;;;3.00;0.90;;;11.80;99.90;;;;;;5047782;28;20196;-92
2021/05/04 09:53:34;;;;;;;1.80;1.10;;;11.90;99.90;;;;;;5047754;28;20221;-91
2021/05/04 09:56:01;;;;;;;3.03;1.10;;;11.90;99.90;;;;;;5047053;28;20220;-95
2021/05/04 09:58:49;;;;;;;2.90;1.00;;;11.80;99.90;;;;;;5049757;28;20838;-91
2021/05/04 10:01:20;;;;;;;1.73;1.13;;;11.70;99.90;;;;;;5019992;28;20229;-89
2021/05/04 10:03:47;;;;;;;2.70;0.87;;;11.60;99.90;;;;;;5024077;28;20174;-92
2021/05/04 10:06:16;;;;;;;3.00;1.03;;;11.60;99.90;;;;;;5027699;28;20193;-94
2021/05/04 10:08:45;;;;;;;2.70;1.03;;;11.50;99.90;;;;;;5026763;28;20218;-90
2021/05/04 10:11:21;;;;;;;5.70;1.13;;;11.60;99.90;;;;;;5029216;28;20222;-93
2021/05/04 10:13:52;;;;;;;1.10;0.80;;;11.50;99.90;;;;;;5029823;28;20185;-93
2021/05/04 10:16:26;;;;;;;1.20;0.90;;;11.50;99.90;;;;;;5029131;28;20257;-93
2021/05/04 10:18:57;;;;;;;2.00;0.97;;;11.60;99.90;;;;;;5023411;28;20183;-90
2021/05/04 10:21:27;;;;;;;1.50;0.90;;;11.60;99.90;;;;;;5026337;28;20647;-92
2021/05/04 10:23:53;;;;;;;3.20;0.90;;;11.60;99.90;;;;;;5028102;28;20217;-92
2021/05/04 10:26:21;;;;;;;2.67;0.90;;;11.70;99.90;;;;;;5020913;28;20257;-92
2021/05/04 10:28:57;;;;;;;1.67;1.03;;;11.90;99.90;;;;;;5035375;28;20175;-91
2021/05/04 10:31:33;;;;;;;2.83;1.10;;;12.10;99.90;;;;;;5025407;28;20247;-91
2021/05/04 10:34:26;;;;;;;5.50;1.23;;;12.20;99.90;;;;;;5028415;28;20182;-90
2021/05/04 10:36:54;;;;;;;3.77;1.20;;;12.00;99.90;;;;;;5020748;28;20214;-91
2021/05/04 10:39:34;;;;;;;1.70;1.23;;;12.00;99.90;;;;;;5026950;28;20273;-93
2021/05/04 10:42:00;;;;;;;4.73;1.10;;;11.90;99.90;;;;;;5023895;28;20206;-93
2021/05/04 10:44:27;;;;;;;3.77;1.10;;;12.00;99.90;;;;;;5028046;28;20218;-92
2021/05/04 10:46:56;;;;;;;1.27;0.90;;;12.00;99.90;;;;;;5028160;28;20183;-93
2021/05/04 10:49:55;;;;;;;1.93;0.90;;;11.90;99.90;;;;;;5026813;28;20340;-91
2021/05/04 10:53:03;;;;;;;2.83;1.10;;;11.80;99.90;;;;;;5027192;28;20206;-91
2021/05/04 10:55:52;;;;;;;5.83;0.97;;;11.60;99.90;;;;;;4939393;28;20188;-92
2021/05/04 10:58:25;;;;;;;1.60;0.77;;;11.60;99.90;;;;;;4919928;28;20564;-91
2021/05/04 11:00:53;;;;;;;1.30;0.80;;;11.60;99.90;;;;;;5006053;28;20253;-94
2021/05/04 11:06:08;;;;;;;2.70;0.70;;;12.10;99.90;;;;;;5031327;28;20198;-94
2021/05/04 11:08:43;;;;;;;1.30;0.87;;;12.20;99.90;;;;;;5030934;28;20734;-93
2021/05/04 11:11:33;;;;;;;4.93;1.00;;;12.20;99.90;;;;;;5031143;28;20280;-94
2021/05/04 11:14:23;;;;;;;3.37;0.77;;;12.30;99.90;;;;;;5033757;28;20182;-94
2021/05/04 11:16:52;;;;;;;4.00;0.80;;;12.40;99.90;;;;;;5030158;28;20693;-92
2021/05/04 11:19:30;;;;;;;3.20;0.80;;;12.50;99.90;;;;;;5032083;28;20662;-93
2021/05/04 11:21:59;;;;;;;4.43;0.77;;;12.80;99.90;;;;;;5041728;28;20312;-91
2021/05/04 11:24:37;;;;;;;2.43;0.80;;;12.90;99.80;;;;;;5065627;28;20365;-95
2021/05/04 11:27:06;;;;;;;1.95;0.80;;;12.90;99.70;;;;;;5031685;28;20581;-93
2021/05/04 11:29:32;;;;;;;1.40;0.70;;;13.00;99.90;;;;;;5031019;28;20191;-91
2021/05/04 11:32:15;;;;;;;3.63;0.90;;;13.10;99.90;;;;;;5032233;28;20198;-92
2021/05/04 11:34:51;;;;;;;5.10;0.90;;;13.10;99.90;;;;;;5031171;28;20186;-90
2021/05/04 11:37:20;;;;;;;1.97;0.60;;;12.80;99.70;;;;;;5031641;28;20189;-92
2021/05/04 11:39:53;;;;;;;4.55;0.70;;;12.70;99.90;;;;;;5032295;28;20642;-92
2021/05/04 11:42:25;;;;;;;0.98;0.80;;;12.90;99.90;;;;;;5030262;28;20207;-94
2021/05/04 11:44:53;;;;;;;2.90;0.75;;;12.90;99.90;;;;;;5030594;28;20203;-94
2021/05/04 11:47:26;;;;;;;2.83;0.90;;;12.90;99.90;;;;;;5030365;28;20222;-94
2021/05/04 11:50:08;;;;;;;1.10;0.73;;;13.00;99.90;;;;;;5030719;28;20202;-93
2021/05/04 11:52:35;;;;;;;1.58;0.70;;;13.20;99.90;;;;;;5031078;28;20208;-93
2021/05/04 11:55:11;;;;;;;3.15;0.80;;;13.50;99.90;;;;;;5030735;28;20521;-92
2021/05/04 11:57:38;;;;;;;3.50;0.70;;;13.90;99.90;;;;;;5031883;28;20185;-93
2021/05/04 12:00:06;;;;;;;1.85;0.73;;;14.30;99.50;;;;;;5028873;28;20224;-92
2021/05/04 12:02:33;;;;;;;1.85;0.60;;;14.20;98.60;;;;;;5043040;28;20244;-93
2021/05/04 12:05:00;;;;;;;2.42;0.70;;;13.90;98.70;;;;;;5030972;28;20205;-93
2021/05/04 12:07:33;;;;;;;5.00;0.80;;;13.80;99.80;;;;;;5032382;28;20188;-94
2021/05/04 12:09:58;;;;;;;2.42;0.90;;;13.50;99.20;;;;;;5029498;28;20228;-92
2021/05/04 12:12:24;;;;;;;6.28;1.00;;;13.10;99.60;;;;;;5034210;28;20206;-95
2021/05/04 12:15:00;;;;;;;2.90;0.73;;;12.90;99.90;;;;;;5026010;28;20526;-92
2021/05/04 12:17:26;;;;;;;4.30;0.90;;;12.60;99.90;;;;;;5033155;28;20186;-91
2021/05/04 12:20:11;;;;;;;1.02;0.60;;;12.50;99.90;;;;;;5037445;28;20194;-91
2021/05/04 12:22:58;;;;;;;4.22;0.82;;;12.50;99.90;;;;;;5034522;28;20194;-92
2021/05/04 12:25:38;;;;;;;2.25;0.80;;;12.50;99.90;;;;;;5037213;28;20201;-91
2021/05/04 12:28:05;;;;;;;1.67;0.77;;;12.50;99.90;;;;;;5068844;28;20186;-93
2021/05/04 12:30:37;;;;;;;2.25;0.77;;;12.50;99.90;;;;;;5040111;28;20175;-96
2021/05/04 12:33:04;;;;;;;4.75;0.70;;;12.40;99.90;;;;;;5038915;28;20198;-93
2021/05/04 12:35:32;;;;;;;3.47;0.73;;;12.30;99.90;;;;;;5036068;28;20182;-91
2021/05/04 12:38:12;;;;;;;2.30;0.97;;;12.30;99.90;;;;;;5036125;28;20183;-92
2021/05/04 12:40:41;;;;;;;4.22;0.98;;;12.20;99.90;;;;;;5047153;28;20174;-93
2021/05/04 12:43:26;;;;;;;1.67;1.00;;;12.00;99.90;;;;;;5036088;28;20202;-92
2021/05/04 12:46:03;;;;;;;3.88;1.10;;;12.00;99.90;;;;;;5036224;28;20656;-92
2021/05/04 12:48:30;;;;;;;2.63;0.90;;;12.00;99.90;;;;;;5018021;28;20529;-92
2021/05/04 12:51:05;;;;;;;1.27;0.93;;;12.00;99.90;;;;;;5044973;28;20169;-92
2021/05/04 12:53:49;;;;;;;2.40;0.90;;;12.10;99.90;;;;;;5042957;28;20197;-92
2021/05/04 12:56:17;;;;;;;4.93;1.00;;;12.20;99.90;;;;;;5038044;28;20175;-91
2021/05/04 12:59:01;;;;;;;1.45;0.90;;;12.40;99.90;;;;;;5037598;28;20174;-94
2021/05/04 13:01:32;;;;;;;2.38;0.70;;;12.60;99.90;;;;;;5037617;28;20202;-92
2021/05/04 13:03:59;;;;;;;1.63;1.00;;;12.70;99.90;;;;;;5037272;28;20579;-94
2021/05/04 13:06:30;;;;;;;2.30;1.05;;;12.70;99.90;;;;;;5036927;28;20183;-90